Time;durP1;ratioP1;P1;durP2;ratioP2;P2;SDS_P1;SDS_P2;PMS_P1;PMS_P2;Temp;Humidity;BMP_temperature;BMP_pressure;BME280_temperature;BME280_humidity;BME280_pressure;Samples;Min_cycle;Max_cycle;Signal;HPM_P1;HPM_P2
2022/07/16 00:01:51;;;;;;;7.87;4.60;;;;;;;17.97;66.04;100593.98;1737672;80;20993;-58
2022/07/16 00:04:18;;;;;;;8.20;4.45;;;;;;;17.94;66.02;100601.47;1739177;81;21079;-58
2022/07/16 00:06:45;;;;;;;8.03;4.17;;;;;;;17.86;66.13;100602.77;1738618;80;21064;-59
2022/07/16 00:09:12;;;;;;;7.97;4.12;;;;;;;17.74;66.25;100605.73;1734244;80;21098;-59
2022/07/16 00:11:39;;;;;;;8.40;4.05;;;;;;;17.62;66.37;100609.21;1690973;82;21173;-58
2022/07/16 00:14:05;;;;;;;7.80;4.33;;;;;;;17.56;66.57;100608.52;1698907;82;21070;-58
2022/07/16 00:16:34;;;;;;;7.55;4.03;;;;;;;17.49;66.80;100610.17;1700049;82;21055;-58
2022/07/16 00:19:21;;;;;;;7.22;4.28;;;;;;;17.39;67.04;100606.33;1723311;81;21039;-58
2022/07/16 00:21:50;;;;;;;9.58;4.40;;;;;;;17.34;67.22;100609.14;1698772;82;21663;-58
2022/07/16 00:24:17;;;;;;;7.95;4.40;;;;;;;17.30;67.39;100607.31;1704856;82;21128;-58
2022/07/16 00:26:44;;;;;;;8.33;3.67;;;;;;;17.26;67.48;100614.78;1739430;81;21048;-58
2022/07/16 00:29:11;;;;;;;6.58;4.00;;;;;;;17.25;67.57;100615.77;1744913;80;21012;-58
2022/07/16 00:31:38;;;;;;;7.78;3.42;;;;;;;17.32;67.53;100607.15;1737674;81;21536;-58
2022/07/16 00:34:06;;;;;;;9.85;3.70;;;;;;;17.39;67.51;100608.16;1740232;81;21691;-58
2022/07/16 00:36:35;;;;;;;6.70;3.37;;;;;;;17.44;67.45;100606.66;1734748;80;21159;-58
2022/07/16 00:39:02;;;;;;;6.30;3.65;;;;;;;17.46;67.35;100609.16;1736658;81;21033;-58
2022/07/16 00:41:29;;;;;;;9.38;4.40;;;;;;;17.44;67.35;100608.50;1697409;82;21034;-58
2022/07/16 00:44:05;;;;;;;7.90;4.40;;;;;;;17.39;67.36;100613.48;1708941;82;21106;-58
2022/07/16 00:46:34;;;;;;;8.15;4.03;;;;;;;17.29;67.59;100605.63;1696330;82;21019;-58
2022/07/16 00:49:00;;;;;;;5.75;3.55;;;;;;;17.21;67.85;100616.23;1733108;80;21140;-58
2022/07/16 00:51:27;;;;;;;6.65;4.05;;;;;;;17.14;68.04;100610.72;1698892;82;21065;-58
2022/07/16 00:53:54;;;;;;;8.28;3.42;;;;;;;17.14;68.08;100609.39;1702535;83;21557;-58
2022/07/16 00:56:21;;;;;;;6.90;3.42;;;;;;;17.06;68.22;100606.22;1699531;83;21118;-59
2022/07/16 00:58:48;;;;;;;5.70;3.65;;;;;;;16.99;68.42;100609.66;1703994;82;22204;-58
2022/07/16 01:01:15;;;;;;;6.55;4.00;;;;;;;16.95;68.71;100610.98;1690159;82;21519;-58
2022/07/16 01:03:42;;;;;;;7.45;3.90;;;;;;;16.90;68.84;100614.12;1706151;82;21529;-58
2022/07/16 01:06:09;;;;;;;7.37;4.00;;;;;;;16.86;68.88;100614.08;1683239;83;21508;-58
2022/07/16 01:08:40;;;;;;;6.97;3.50;;;;;;;16.82;69.09;100612.20;1728540;81;21111;-59
2022/07/16 01:11:10;;;;;;;6.42;3.87;;;;;;;16.83;69.05;100611.23;1739121;81;21078;-58
2022/07/16 01:13:39;;;;;;;5.75;3.65;;;;;;;16.88;69.02;100610.28;1698535;82;21222;-58
2022/07/16 01:16:07;;;;;;;10.23;3.80;;;;;;;16.94;68.95;100611.97;1752350;80;21379;-58
2022/07/16 01:18:33;;;;;;;6.25;3.95;;;;;;;16.98;68.90;100615.96;1750703;80;21472;-58
2022/07/16 01:21:01;;;;;;;6.30;3.35;;;;;;;16.96;68.92;100610.80;1751944;80;21554;-59
2022/07/16 01:23:27;;;;;;;8.03;3.67;;;;;;;16.93;68.83;100615.13;1708830;83;21043;-58
2022/07/16 01:25:54;;;;;;;8.98;4.33;;;;;;;16.89;68.77;100614.62;1708151;82;21129;-58
2022/07/16 01:28:21;;;;;;;5.97;3.70;;;;;;;16.87;68.71;100615.25;1744706;81;21071;-58
2022/07/16 01:30:47;;;;;;;6.42;3.47;;;;;;;16.84;68.56;100609.39;1750116;80;21054;-58
2022/07/16 01:33:24;;;;;;;5.97;3.35;;;;;;;16.83;68.46;100608.56;1742954;80;21050;-59
2022/07/16 01:35:55;;;;;;;5.90;3.27;;;;;;;16.88;68.21;100609.46;1702315;82;21101;-59
2022/07/16 01:38:22;;;;;;;7.17;4.00;;;;;;;16.92;68.09;100620.09;1710702;82;21099;-59
2022/07/16 01:40:49;;;;;;;5.90;3.27;;;;;;;16.96;68.02;100623.27;1699269;82;21085;-59
2022/07/16 01:43:20;;;;;;;7.65;4.25;;;;;;;16.94;67.89;100623.42;1724727;80;21206;-59
2022/07/16 01:45:47;;;;;;;7.78;3.92;;;;;;;16.90;68.00;100628.23;1738006;80;21529;-59
2022/07/16 01:48:14;;;;;;;8.05;3.72;;;;;;;16.89;68.23;100625.73;1738028;82;21110;-59
2022/07/16 01:50:42;;;;;;;6.15;3.80;;;;;;;16.91;68.21;100633.04;1748963;80;22044;-59
2022/07/16 01:53:10;;;;;;;7.03;3.50;;;;;;;16.89;68.10;100627.05;1744948;80;21054;-59
2022/07/16 01:55:37;;;;;;;6.40;3.55;;;;;;;16.85;68.16;100625.21;1748669;80;21050;-59
2022/07/16 01:58:05;;;;;;;5.62;3.62;;;;;;;16.87;68.29;100625.06;1751484;80;21102;-59
2022/07/16 02:00:33;;;;;;;7.92;3.80;;;;;;;16.87;68.29;100628.53;1747448;80;21087;-59
2022/07/16 02:02:59;;;;;;;6.85;3.83;;;;;;;16.86;68.21;100627.36;1705311;82;21651;-59
2022/07/16 02:05:26;;;;;;;7.62;4.10;;;;;;;16.82;68.07;100622.83;1708359;82;21046;-59
2022/07/16 02:07:53;;;;;;;10.53;3.80;;;;;;;16.76;68.28;100631.45;1694050;83;21088;-59
2022/07/16 02:10:20;;;;;;;9.65;4.42;;;;;;;16.73;68.58;100630.44;1693451;84;21586;-59
2022/07/16 02:12:47;;;;;;;6.72;3.77;;;;;;;16.77;68.60;100625.12;1689117;83;21617;-59
2022/07/16 02:15:14;;;;;;;5.87;3.60;;;;;;;16.81;68.91;100627.83;1715141;82;21131;-59
2022/07/16 02:17:41;;;;;;;6.20;3.95;;;;;;;16.84;68.91;100624.86;1712135;82;21113;-60
2022/07/16 02:20:09;;;;;;;5.05;3.20;;;;;;;16.83;68.86;100631.66;1714819;82;21090;-59
2022/07/16 02:22:36;;;;;;;5.92;3.27;;;;;;;16.80;68.74;100626.15;1688821;82;21579;-59
2022/07/16 02:25:04;;;;;;;7.00;3.87;;;;;;;16.76;68.69;100639.42;1713511;82;21062;-59
2022/07/16 02:27:32;;;;;;;10.93;3.70;;;;;;;16.70;68.68;100634.23;1714285;82;21959;-59
2022/07/16 02:29:59;;;;;;;10.28;4.47;;;;;;;16.71;68.71;100639.06;1714610;82;21132;-59
2022/07/16 02:32:27;;;;;;;9.78;4.00;;;;;;;16.74;68.44;100635.25;1718268;82;21148;-58
2022/07/16 02:34:54;;;;;;;7.95;3.85;;;;;;;16.74;68.54;100634.74;1718777;82;21000;-58
2022/07/16 02:37:20;;;;;;;5.65;3.58;;;;;;;16.69;68.55;100633.91;1717813;82;21104;-58
2022/07/16 02:39:47;;;;;;;6.90;3.90;;;;;;;16.67;68.70;100637.70;1719546;82;21226;-59
2022/07/16 02:42:13;;;;;;;6.55;3.80;;;;;;;16.67;68.49;100643.01;1702215;83;21053;-59
2022/07/16 02:44:40;;;;;;;6.90;3.60;;;;;;;16.63;68.30;100640.34;1695154;83;21109;-59
2022/07/16 02:47:06;;;;;;;5.85;3.15;;;;;;;16.63;68.28;100639.83;1696901;84;21174;-59
2022/07/16 02:49:33;;;;;;;7.17;4.08;;;;;;;16.67;68.38;100640.35;1722020;82;21058;-59
2022/07/16 02:51:59;;;;;;;7.10;3.50;;;;;;;16.71;68.42;100645.70;1703453;82;21140;-59
2022/07/16 02:54:27;;;;;;;7.22;3.65;;;;;;;16.73;68.26;100641.06;1701270;83;21518;-59
2022/07/16 02:56:54;;;;;;;8.08;3.58;;;;;;;16.67;68.18;100645.67;1696887;83;21642;-59
2022/07/16 02:59:20;;;;;;;8.15;3.47;;;;;;;16.64;68.15;100642.84;1703927;82;21146;-59
2022/07/16 03:01:47;;;;;;;6.78;3.67;;;;;;;16.61;68.26;100644.95;1687243;83;21066;-59
2022/07/16 03:04:13;;;;;;;6.45;3.30;;;;;;;16.57;68.37;100652.40;1695613;83;21282;-58
2022/07/16 03:06:40;;;;;;;5.97;3.05;;;;;;;16.56;68.51;100648.09;1692965;83;21066;-58
2022/07/16 03:09:07;;;;;;;5.10;3.17;;;;;;;16.57;68.51;100651.08;1704599;83;21029;-58
2022/07/16 03:11:33;;;;;;;6.95;3.40;;;;;;;16.57;68.64;100646.27;1700789;83;21130;-58
2022/07/16 03:14:00;;;;;;;5.65;3.40;;;;;;;16.57;68.72;100652.91;1690724;84;21203;-58
2022/07/16 03:16:27;;;;;;;5.83;3.08;;;;;;;16.55;68.83;100650.41;1692025;83;21142;-58
2022/07/16 03:18:54;;;;;;;5.72;3.40;;;;;;;16.52;69.03;100656.02;1691631;83;21051;-59
2022/07/16 03:21:22;;;;;;;6.40;3.25;;;;;;;16.49;69.02;100649.69;1686107;83;21196;-58
2022/07/16 03:23:48;;;;;;;13.78;3.22;;;;;;;16.51;68.97;100653.05;1688316;84;21100;-58
2022/07/16 03:26:15;;;;;;;5.55;3.05;;;;;;;16.53;68.77;100658.52;1696654;83;21067;-59
2022/07/16 03:28:42;;;;;;;6.72;2.62;;;;;;;16.62;68.54;100661.24;1694515;83;21134;-58
2022/07/16 03:31:08;;;;;;;8.48;3.00;;;;;;;16.67;68.32;100659.77;1690103;83;21122;-59
2022/07/16 03:33:35;;;;;;;7.28;3.30;;;;;;;16.70;68.04;100658.64;1689398;83;21067;-58
2022/07/16 03:36:02;;;;;;;7.30;2.85;;;;;;;16.74;67.90;100656.50;1701166;82;21050;-58
2022/07/16 03:41:13;;;;;;;6.20;3.08;;;;;;;16.72;67.56;100649.51;1733813;81;21988;-58
2022/07/16 03:43:41;;;;;;;5.80;2.90;;;;;;;16.75;67.04;100645.72;1735256;80;21373;-58
2022/07/16 03:46:12;;;;;;;4.92;2.55;;;;;;;16.79;67.07;100649.72;1694775;82;21775;-58
2022/07/16 03:48:35;;;;;;;6.72;2.72;;;;;;;16.90;66.90;100646.83;1746130;81;21098;-58
2022/07/16 03:51:04;;;;;;;5.00;2.50;;;;;;;17.01;66.39;100656.85;1743414;80;20996;-58
2022/07/16 03:53:30;;;;;;;7.50;2.60;;;;;;;17.06;66.12;100659.39;1750861;80;22025;-58
2022/07/16 03:55:57;;;;;;;6.03;2.70;;;;;;;17.08;65.87;100656.58;1749637;81;21546;-58
2022/07/16 03:58:23;;;;;;;6.10;2.62;;;;;;;17.10;65.65;100651.93;1703946;83;21105;-58
2022/07/16 04:00:49;;;;;;;6.65;2.52;;;;;;;17.15;65.49;100657.60;1698188;84;21028;-58
2022/07/16 04:03:16;;;;;;;4.70;2.60;;;;;;;17.15;65.56;100656.78;1699845;84;21066;-58
2022/07/16 04:05:44;;;;;;;4.05;2.02;;;;;;;17.18;65.57;100658.62;1695492;83;21152;-58
2022/07/16 04:08:10;;;;;;;6.17;2.50;;;;;;;17.26;65.50;100661.31;1699308;84;21087;-58
2022/07/16 04:10:37;;;;;;;5.70;2.35;;;;;;;17.38;65.39;100672.98;1693971;82;21503;-58
2022/07/16 04:13:04;;;;;;;5.25;2.42;;;;;;;17.50;65.47;100673.52;1739264;80;21396;-58
2022/07/16 04:15:30;;;;;;;4.30;2.35;;;;;;;17.58;64.98;100678.36;1741989;80;21023;-58
2022/07/16 04:17:57;;;;;;;6.30;2.58;;;;;;;17.65;64.53;100678.55;1739907;80;21811;-59
2022/07/16 04:20:25;;;;;;;4.60;2.30;;;;;;;17.70;64.35;100687.39;1701718;82;21066;-58
2022/07/16 04:22:51;;;;;;;4.75;2.52;;;;;;;17.77;64.23;100675.09;1743158;81;21053;-59
2022/07/16 04:25:19;;;;;;;6.58;2.70;;;;;;;17.80;63.98;100676.10;1745671;82;21083;-58
2022/07/16 04:27:45;;;;;;;4.53;2.10;;;;;;;17.80;63.93;100677.43;1745253;80;21002;-59
2022/07/16 04:30:13;;;;;;;4.83;2.50;;;;;;;17.87;63.76;100673.65;1743147;81;21118;-59
2022/07/16 04:32:41;;;;;;;4.87;2.33;;;;;;;17.92;63.83;100681.50;1742554;81;21105;-58
2022/07/16 04:35:11;;;;;;;4.50;2.50;;;;;;;17.98;63.89;100682.66;1742789;82;21118;-59
2022/07/16 04:37:39;;;;;;;5.70;2.35;;;;;;;18.02;63.64;100681.33;1741811;80;20992;-59
2022/07/16 04:40:08;;;;;;;5.90;2.33;;;;;;;18.11;63.13;100683.53;1745359;80;21069;-59
2022/07/16 04:42:39;;;;;;;5.37;2.10;;;;;;;18.20;62.94;100681.19;1708479;82;21105;-59
2022/07/16 04:45:08;;;;;;;5.08;2.62;;;;;;;18.30;62.85;100687.69;1747719;80;21051;-59
2022/07/16 04:47:35;;;;;;;6.80;2.90;;;;;;;18.38;62.27;100679.20;1736057;80;21082;-59
2022/07/16 04:50:02;;;;;;;4.53;2.55;;;;;;;18.50;61.90;100673.03;1705909;83;21137;-59
2022/07/16 04:52:30;;;;;;;5.55;2.50;;;;;;;18.58;61.35;100674.87;1744522;80;21060;-59
2022/07/16 04:54:58;;;;;;;4.42;2.30;;;;;;;18.65;61.19;100673.19;1753056;81;21691;-59
2022/07/16 04:57:25;;;;;;;5.53;2.35;;;;;;;18.71;60.76;100675.66;1750596;80;20955;-58
2022/07/16 04:59:52;;;;;;;5.15;2.15;;;;;;;18.78;60.53;100679.82;1755379;80;21650;-58
2022/07/16 05:05:05;;;;;;;5.78;2.42;;;;;;;18.86;59.41;100674.03;1747283;80;21115;-59
2022/07/16 05:07:32;;;;;;;4.10;2.00;;;;;;;18.90;58.73;100682.52;1754091;80;21177;-60
2022/07/16 05:09:59;;;;;;;5.80;2.12;;;;;;;18.91;58.75;100676.16;1749161;80;21050;-58
2022/07/16 05:12:26;;;;;;;5.67;2.33;;;;;;;18.93;59.01;100679.52;1747781;80;21083;-58
2022/07/16 05:14:54;;;;;;;5.78;2.25;;;;;;;18.98;58.61;100682.98;1753717;81;21130;-58
2022/07/16 05:17:21;;;;;;;4.62;2.40;;;;;;;19.01;57.68;100675.98;1754647;80;21105;-58
2022/07/16 05:19:48;;;;;;;4.42;2.12;;;;;;;19.06;57.26;100677.63;1753772;81;21154;-58
2022/07/16 05:22:15;;;;;;;6.30;2.22;;;;;;;19.11;56.80;100678.80;1754757;81;21091;-59
2022/07/16 05:24:41;;;;;;;3.98;1.70;;;;;;;19.17;57.06;100680.45;1754461;80;21062;-59
2022/07/16 05:27:08;;;;;;;5.55;2.52;;;;;;;19.23;57.38;100678.41;1754520;80;21086;-58
2022/07/16 05:29:35;;;;;;;5.92;2.10;;;;;;;19.27;56.59;100679.23;1754463;80;21150;-59
2022/07/16 05:32:01;;;;;;;4.67;2.20;;;;;;;19.32;56.71;100677.38;1752426;80;21362;-59
2022/07/16 05:34:28;;;;;;;5.20;2.20;;;;;;;19.37;56.76;100676.36;1745174;80;21051;-59
2022/07/16 05:36:54;;;;;;;9.78;2.33;;;;;;;19.46;56.65;100678.48;1745361;80;21612;-58
2022/07/16 05:39:22;;;;;;;4.80;2.20;;;;;;;19.61;55.86;100674.58;1707479;82;21521;-59
2022/07/16 05:41:49;;;;;;;8.15;2.25;;;;;;;19.70;55.82;100677.52;1711566;82;21187;-59
2022/07/16 05:44:16;;;;;;;4.80;2.37;;;;;;;19.79;55.70;100674.35;1712938;82;21141;-58
2022/07/16 05:46:42;;;;;;;5.08;1.90;;;;;;;19.85;55.35;100678.48;1702693;82;21641;-58
2022/07/16 05:49:09;;;;;;;6.62;2.20;;;;;;;19.90;55.10;100677.11;1702838;82;21491;-59
2022/07/16 05:51:37;;;;;;;5.35;2.35;;;;;;;19.94;55.09;100678.41;1701642;82;21416;-59
2022/07/16 05:54:03;;;;;;;5.87;2.27;;;;;;;19.96;55.21;100675.90;1690929;82;21472;-59
2022/07/16 05:56:30;;;;;;;4.97;2.10;;;;;;;20.00;55.38;100676.38;1689767;83;21945;-59
2022/07/16 05:59:02;;;;;;;8.83;2.33;;;;;;;20.07;56.32;100673.82;1689919;83;21573;-59
2022/07/16 06:01:25;;;;;;;5.17;2.37;;;;;;;20.13;56.15;100675.27;1704022;82;21030;-59
2022/07/16 06:03:52;;;;;;;4.62;2.05;;;;;;;20.15;55.34;100677.26;1744068;80;21065;-59
2022/07/16 06:06:19;;;;;;;4.33;2.00;;;;;;;20.17;55.11;100668.58;1740975;80;21070;-59
2022/07/16 06:08:45;;;;;;;6.05;2.17;;;;;;;20.19;55.35;100672.38;1747196;80;22821;-58
2022/07/16 06:11:12;;;;;;;7.10;2.77;;;;;;;20.21;54.53;100671.72;1743578;80;21567;-58
2022/07/16 06:13:39;;;;;;;4.85;2.12;;;;;;;20.22;53.52;100674.70;1743185;80;21004;-58
2022/07/16 06:16:07;;;;;;;7.75;2.50;;;;;;;20.21;53.60;100675.22;1743698;80;21125;-59
2022/07/16 06:18:35;;;;;;;4.58;2.25;;;;;;;20.27;54.65;100676.33;1743270;80;21097;-58
2022/07/16 06:21:03;;;;;;;4.47;2.02;;;;;;;20.33;54.16;100673.47;1739459;80;21118;-59
2022/07/16 06:23:29;;;;;;;9.13;2.67;;;;;;;20.36;52.09;100679.28;1741191;80;21078;-59
2022/07/16 06:25:56;;;;;;;6.45;2.47;;;;;;;20.39;52.68;100681.59;1739645;80;21353;-59
2022/07/16 06:28:23;;;;;;;4.90;1.98;;;;;;;20.45;52.66;100675.20;1733556;81;21139;-59
2022/07/16 06:30:49;;;;;;;4.92;1.87;;;;;;;20.48;52.89;100677.00;1709959;82;21059;-59
2022/07/16 06:33:15;;;;;;;6.05;2.00;;;;;;;20.51;51.79;100678.47;1707770;82;21228;-59
2022/07/16 06:35:42;;;;;;;4.78;2.05;;;;;;;20.53;51.61;100680.48;1696659;82;21581;-59
2022/07/16 06:38:09;;;;;;;3.95;1.72;;;;;;;20.54;51.53;100680.30;1714958;82;21055;-59
2022/07/16 06:40:36;;;;;;;4.62;1.85;;;;;;;20.57;51.57;100674.56;1714345;82;21141;-60
2022/07/16 06:43:02;;;;;;;4.45;2.05;;;;;;;20.62;51.35;100678.04;1722046;82;21628;-59
2022/07/16 06:45:29;;;;;;;4.90;2.15;;;;;;;20.65;51.38;100676.89;1718727;82;21110;-58
2022/07/16 06:47:56;;;;;;;5.15;2.25;;;;;;;20.68;50.46;100677.36;1739927;80;21054;-59
2022/07/16 06:50:24;;;;;;;5.03;2.30;;;;;;;20.72;50.23;100675.97;1715867;82;21012;-60
2022/07/16 06:52:50;;;;;;;5.40;2.30;;;;;;;20.79;50.54;100674.73;1708904;82;21134;-59
2022/07/16 06:55:17;;;;;;;7.67;2.27;;;;;;;20.83;50.57;100682.73;1700721;82;21065;-58
2022/07/16 06:57:43;;;;;;;5.90;2.70;;;;;;;20.88;51.21;100681.67;1725903;80;21150;-59
2022/07/16 07:00:12;;;;;;;12.78;2.50;;;;;;;20.96;50.78;100679.39;1706584;82;21086;-60
2022/07/16 07:02:38;;;;;;;5.60;2.37;;;;;;;21.05;50.52;100680.16;1741555;80;21384;-59
2022/07/16 07:05:07;;;;;;;5.90;2.33;;;;;;;21.11;50.47;100681.56;1740375;82;21000;-59
2022/07/16 07:07:33;;;;;;;6.58;2.25;;;;;;;21.19;50.22;100678.49;1738722;82;21504;-59
2022/07/16 07:10:01;;;;;;;6.22;2.75;;;;;;;21.25;49.80;100679.92;1743685;82;21222;-59
2022/07/16 07:12:29;;;;;;;7.08;3.37;;;;;;;21.31;49.28;100671.64;1742683;80;21080;-59
2022/07/16 07:14:56;;;;;;;7.17;2.75;;;;;;;21.37;49.38;100679.42;1740441;80;22171;-59
2022/07/16 07:17:22;;;;;;;4.62;2.30;;;;;;;21.43;49.08;100676.01;1740836;82;21012;-59
2022/07/16 07:19:49;;;;;;;6.35;2.67;;;;;;;21.49;48.75;100676.12;1738926;81;21025;-59
2022/07/16 07:22:15;;;;;;;4.92;2.35;;;;;;;21.61;48.40;100674.31;1744420;81;21143;-59
2022/07/16 07:24:42;;;;;;;8.00;2.45;;;;;;;21.72;47.85;100677.84;1742063;81;21040;-59
2022/07/16 07:27:08;;;;;;;5.87;2.67;;;;;;;21.83;48.42;100671.15;1744619;80;21079;-59
2022/07/16 07:29:35;;;;;;;5.08;2.15;;;;;;;21.90;48.51;100664.00;1743073;80;21069;-59
2022/07/16 07:32:02;;;;;;;14.43;2.15;;;;;;;21.99;48.43;100661.53;1746471;82;20992;-59
2022/07/16 07:34:29;;;;;;;5.25;2.30;;;;;;;22.10;48.70;100660.18;1741157;80;22023;-60
2022/07/16 07:36:55;;;;;;;5.65;2.30;;;;;;;22.24;48.17;100659.78;1740031;82;21487;-59
2022/07/16 07:39:22;;;;;;;6.08;2.22;;;;;;;22.35;47.18;100663.32;1743519;80;21109;-59
2022/07/16 07:41:48;;;;;;;3.92;1.80;;;;;;;22.43;47.01;100657.00;1723704;80;21125;-60
2022/07/16 07:44:15;;;;;;;5.75;1.90;;;;;;;22.47;46.97;100656.09;1703222;82;21118;-59
2022/07/16 07:46:41;;;;;;;6.05;2.40;;;;;;;22.51;46.76;100656.02;1702321;82;21131;-60
2022/07/16 07:49:10;;;;;;;4.25;1.98;;;;;;;22.54;46.41;100654.28;1698580;82;21050;-59
2022/07/16 07:51:37;;;;;;;4.95;1.42;;;;;;;22.53;45.11;100648.11;1701588;83;21054;-59
2022/07/16 07:54:04;;;;;;;4.15;1.87;;;;;;;22.48;45.25;100654.56;1724717;80;21019;-59
2022/07/16 07:56:31;;;;;;;4.40;1.75;;;;;;;22.49;45.61;100648.69;1731422;81;21127;-59
2022/07/16 07:58:58;;;;;;;6.60;1.85;;;;;;;22.50;45.38;100645.81;1722609;80;21747;-59
2022/07/16 08:01:24;;;;;;;3.50;1.30;;;;;;;22.51;44.40;100642.60;1693860;82;21536;-59
2022/07/16 08:03:51;;;;;;;6.58;1.45;;;;;;;22.55;42.12;100645.23;1695505;82;21513;-59
2022/07/16 08:06:17;;;;;;;3.90;1.50;;;;;;;22.60;42.70;100648.16;1693376;82;21054;-59
2022/07/16 08:08:44;;;;;;;5.37;2.22;;;;;;;22.64;43.03;100650.75;1718725;82;21110;-59
2022/07/16 08:11:11;;;;;;;6.53;2.02;;;;;;;22.70;43.59;100639.77;1720668;80;21190;-59
2022/07/16 08:13:37;;;;;;;3.83;1.82;;;;;;;22.79;44.27;100644.75;1721120;82;21109;-59
2022/07/16 08:16:05;;;;;;;4.00;1.50;;;;;;;22.82;43.67;100637.66;1731464;80;21119;-59
2022/07/16 08:18:32;;;;;;;3.72;1.85;;;;;;;22.80;44.52;100645.08;1697359;83;21069;-59
2022/07/16 08:20:59;;;;;;;4.50;1.92;;;;;;;22.76;44.62;100638.47;1706777;82;21072;-59
2022/07/16 08:26:12;;;;;;;3.92;1.62;;;;;;;22.79;45.00;100643.94;1695760;82;21017;-59
2022/07/16 08:28:41;;;;;;;4.85;2.15;;;;;;;22.81;44.56;100648.59;1698809;82;21065;-60
2022/07/16 08:31:07;;;;;;;5.37;1.87;;;;;;;22.79;44.25;100639.91;1694514;82;21078;-62
2022/07/16 08:33:34;;;;;;;3.70;1.57;;;;;;;22.82;44.22;100643.02;1694949;82;21553;-63
2022/07/16 08:36:01;;;;;;;4.50;1.87;;;;;;;22.87;44.70;100638.94;1740496;80;21888;-62
2022/07/16 08:38:28;;;;;;;4.10;1.80;;;;;;;22.93;44.43;100636.30;1728937;80;21032;-59
2022/07/16 08:40:58;;;;;;;5.00;2.00;;;;;;;23.00;44.03;100636.33;1740385;80;20989;-59
2022/07/16 08:43:24;;;;;;;4.03;1.70;;;;;;;23.11;44.85;100640.33;1733593;80;21059;-60
2022/07/16 08:45:52;;;;;;;3.52;1.52;;;;;;;23.20;44.52;100636.45;1735206;82;21091;-59
2022/07/16 08:48:20;;;;;;;3.67;1.47;;;;;;;23.33;43.36;100632.98;1731266;80;21303;-60
2022/07/16 08:50:47;;;;;;;4.12;1.60;;;;;;;23.42;42.94;100632.28;1744899;80;21481;-59
2022/07/16 08:53:14;;;;;;;4.40;1.67;;;;;;;23.47;43.38;100635.19;1735535;80;21086;-59
2022/07/16 08:55:41;;;;;;;3.58;1.70;;;;;;;23.54;43.13;100629.34;1736411;80;21035;-60
2022/07/16 08:58:08;;;;;;;3.77;1.57;;;;;;;23.61;43.07;100627.50;1733452;80;21064;-60
2022/07/16 09:00:35;;;;;;;4.42;1.67;;;;;;;23.67;43.02;100629.87;1752877;81;21242;-59
2022/07/16 09:03:02;;;;;;;3.67;1.72;;;;;;;23.67;41.99;100629.38;1728962;80;21638;-59
2022/07/16 09:05:29;;;;;;;4.15;1.98;;;;;;;23.65;41.20;100629.26;1698062;82;21102;-59
2022/07/16 09:07:56;;;;;;;4.62;1.90;;;;;;;23.59;41.05;100626.03;1698901;82;20970;-60
2022/07/16 09:10:35;;;;;;;4.33;1.82;;;;;;;23.56;41.24;100626.75;1704965;82;21059;-60
2022/07/16 09:13:02;;;;;;;4.60;1.57;;;;;;;23.58;41.97;100626.55;1697764;82;21119;-61
2022/07/16 09:15:37;;;;;;;5.42;1.75;;;;;;;23.62;41.44;100631.85;1695354;83;21085;-59
2022/07/16 09:18:23;;;;;;;5.75;2.20;;;;;;;23.70;41.96;100619.58;1697394;82;21509;-62
2022/07/16 09:21:00;;;;;;;3.65;1.50;;;;;;;23.86;40.64;100625.09;1696125;82;21478;-60
2022/07/16 09:23:33;;;;;;;5.92;1.70;;;;;;;24.03;40.04;100615.30;1694718;82;21117;-58
2022/07/16 09:26:10;;;;;;;4.42;1.77;;;;;;;24.19;41.00;100606.83;1734471;80;21236;-60
2022/07/16 09:28:43;;;;;;;5.70;1.82;;;;;;;24.37;41.42;100605.36;1731132;80;21323;-60
2022/07/16 09:31:33;;;;;;;3.70;1.67;;;;;;;24.55;40.63;100596.69;1736287;81;21106;-59
2022/07/16 09:34:09;;;;;;;3.50;1.50;;;;;;;24.61;38.37;100602.05;1694695;82;21053;-59
2022/07/16 09:36:37;;;;;;;3.80;1.65;;;;;;;24.58;38.43;100596.24;1731882;81;21078;-59
2022/07/16 09:39:06;;;;;;;4.35;1.40;;;;;;;24.55;39.27;100590.78;1733995;80;21072;-62
2022/07/16 09:41:46;;;;;;;3.62;1.60;;;;;;;24.54;38.73;100589.61;1739486;82;21039;-60
2022/07/16 09:44:24;;;;;;;6.45;1.82;;;;;;;24.51;36.99;100592.22;1736250;81;21028;-60
2022/07/16 09:47:11;;;;;;;2.90;1.10;;;;;;;24.46;36.76;100595.53;1738054;81;21098;-58
2022/07/16 09:49:42;;;;;;;4.25;1.50;;;;;;;24.46;37.32;100594.19;1740716;80;21482;-58
2022/07/16 09:52:30;;;;;;;4.83;1.52;;;;;;;24.41;36.45;100589.11;1696205;82;23372;-60
2022/07/16 09:54:57;;;;;;;3.12;1.35;;;;;;;24.36;36.91;100599.66;1711241;82;22152;-59
2022/07/16 09:57:26;;;;;;;3.35;1.37;;;;;;;24.27;36.61;100591.80;1737778;82;21526;-59
2022/07/16 09:59:53;;;;;;;3.50;1.30;;;;;;;24.22;36.74;100584.06;1735234;81;21048;-58
2022/07/16 10:02:20;;;;;;;6.15;1.70;;;;;;;24.20;37.04;100593.68;1743669;80;21104;-59
2022/07/16 10:04:47;;;;;;;4.33;1.32;;;;;;;24.21;37.23;100595.34;1738935;81;21171;-59
2022/07/16 10:09:43;;;;;;;3.27;1.35;;;;;;;24.36;37.00;100587.06;1788883;79;22714;-60
2022/07/16 10:12:12;;;;;;;6.10;1.67;;;;;;;24.48;37.90;100588.59;1756273;80;21038;-61
2022/07/16 10:14:51;;;;;;;4.67;1.60;;;;;;;24.56;37.05;100574.11;1753761;80;21541;-60
2022/07/16 10:17:22;;;;;;;4.30;1.30;;;;;;;24.69;37.62;100574.61;1754954;81;21094;-60
2022/07/16 10:20:01;;;;;;;3.40;1.50;;;;;;;24.79;38.59;100573.64;1745221;80;21047;-59
2022/07/16 10:22:40;;;;;;;2.62;1.10;;;;;;;24.89;38.51;100567.28;1719134;83;20993;-58
2022/07/16 10:25:26;;;;;;;5.58;1.70;;;;;;;25.00;38.23;100577.40;1720091;82;21105;-57
2022/07/16 10:27:53;;;;;;;;;;;;;;;25.08;36.56;100564.73;1717516;81;21250;-58
2022/07/16 10:30:25;;;;;;;4.12;1.75;;;;;;;25.07;35.96;100555.02;1708711;83;20160;-60
2022/07/16 10:33:16;;;;;;;4.60;1.45;;;;;;;25.00;37.11;100569.32;1707787;83;20994;-60
2022/07/16 10:35:49;;;;;;;4.40;1.50;;;;;;;24.96;36.71;100562.70;1710731;83;21521;-59
2022/07/16 10:38:24;;;;;;;5.20;1.62;;;;;;;25.01;36.65;100561.53;1715649;82;21097;-60
2022/07/16 10:41:16;;;;;;;2.95;1.22;;;;;;;25.09;36.02;100560.48;1708605;82;21229;-59
2022/07/16 10:43:40;;;;;;;4.90;1.85;;;;;;;25.15;35.46;100560.97;1711877;83;21111;-60
2022/07/16 10:46:10;;;;;;;3.62;1.47;;;;;;;25.19;35.59;100554.63;1690237;83;21502;-59
2022/07/16 10:48:42;;;;;;;3.70;1.82;;;;;;;25.26;34.87;100551.91;1717553;83;21127;-59
2022/07/16 10:51:22;;;;;;;5.15;1.80;;;;;;;25.29;34.05;100553.67;1721062;83;21012;-59
2022/07/16 10:54:03;;;;;;;5.55;1.85;;;;;;;25.24;34.30;100552.65;1715570;82;21087;-58
2022/07/16 10:56:50;;;;;;;4.70;1.57;;;;;;;25.20;33.40;100550.38;1712971;82;21086;-60
2022/07/16 10:59:28;;;;;;;5.42;1.65;;;;;;;25.15;34.01;100551.55;1710858;82;22261;-59
2022/07/16 11:01:57;;;;;;;5.00;1.77;;;;;;;25.17;34.86;100548.64;1704253;83;21049;-60
2022/07/16 11:04:32;;;;;;;4.58;1.80;;;;;;;25.21;34.76;100548.51;1711592;82;21839;-59
2022/07/16 11:07:00;;;;;;;5.67;2.00;;;;;;;25.31;33.88;100545.38;1711908;82;21254;-60
2022/07/16 11:09:31;;;;;;;3.87;1.22;;;;;;;25.38;33.69;100541.59;1709379;83;21672;-59
2022/07/16 11:12:18;;;;;;;3.83;1.65;;;;;;;25.47;33.58;100544.02;1700549;83;21534;-60
2022/07/16 11:14:48;;;;;;;11.70;2.27;;;;;;;25.52;33.15;100537.46;1702327;82;21142;-59
2022/07/16 11:17:18;;;;;;;3.58;1.42;;;;;;;25.56;33.46;100544.08;1693279;84;21087;-61
2022/07/16 11:19:48;;;;;;;6.62;1.65;;;;;;;25.63;34.56;100541.34;1710377;82;21169;-59
2022/07/16 11:22:23;;;;;;;4.05;1.60;;;;;;;25.74;35.27;100540.11;1756020;80;21031;-59
2022/07/16 11:24:53;;;;;;;5.85;1.95;;;;;;;25.90;33.76;100537.91;1745570;81;21059;-61
2022/07/16 11:27:34;;;;;;;4.53;1.62;;;;;;;26.01;33.06;100538.58;1746104;81;21059;-60
2022/07/16 11:30:06;;;;;;;3.70;1.60;;;;;;;26.07;33.45;100537.67;1746821;80;21561;-58
2022/07/16 11:32:32;;;;;;;4.50;1.57;;;;;;;26.12;33.77;100536.48;1746522;80;21675;-59
2022/07/16 11:35:06;;;;;;;5.60;1.70;;;;;;;26.14;33.76;100544.34;1752909;81;21051;-58
2022/07/16 11:37:51;;;;;;;4.20;1.57;;;;;;;26.13;34.37;100546.23;1751312;81;21046;-58
2022/07/16 11:40:18;;;;;;;;;;;;;;;26.15;33.91;100541.97;1752193;81;21051;-58
2022/07/16 11:42:57;;;;;;;4.35;1.45;;;;;;;26.07;33.51;100535.50;1755181;81;20240;-59